sensor_id;sensor_type;location;lat;lon;timestamp;pressure;altitude;pressure_sealevel;temperature;humidity
8286;BME280;4181;43.416;24.598;2022-08-25T00:01:35;98974.84;;;24.96;100.00
8286;BME280;4181;43.416;24.598;2022-08-25T00:04:04;98968.78;;;24.91;100.00
8286;BME280;4181;43.416;24.598;2022-08-25T00:06:30;98957.34;;;24.99;100.00
8286;BME280;4181;43.416;24.598;2022-08-25T00:08:55;98949.50;;;24.82;100.00
8286;BME280;4181;43.416;24.598;2022-08-25T00:11:26;98958.69;;;24.83;100.00
8286;BME280;4181;43.416;24.598;2022-08-25T00:13:55;98941.81;;;24.76;100.00
8286;BME280;4181;43.416;24.598;2022-08-25T00:16:23;98926.88;;;24.65;100.00
8286;BME280;4181;43.416;24.598;2022-08-25T00:18:51;98923.38;;;24.68;100.00
8286;BME280;4181;43.416;24.598;2022-08-25T00:21:19;98895.31;;;24.61;100.00
8286;BME280;4181;43.416;24.598;2022-08-25T00:23:45;98908.72;;;24.74;100.00
8286;BME280;4181;43.416;24.598;2022-08-25T00:26:12;98892.38;;;24.73;100.00
8286;BME280;4181;43.416;24.598;2022-08-25T00:28:38;98901.06;;;24.68;100.00
8286;BME280;4181;43.416;24.598;2022-08-25T00:31:05;98886.41;;;24.74;100.00
8286;BME280;4181;43.416;24.598;2022-08-25T00:33:31;98889.38;;;24.85;100.00
8286;BME280;4181;43.416;24.598;2022-08-25T00:35:59;98885.00;;;24.87;100.00
8286;BME280;4181;43.416;24.598;2022-08-25T00:38:25;98881.38;;;24.83;100.00
8286;BME280;4181;43.416;24.598;2022-08-25T00:40:51;98888.19;;;24.86;100.00
8286;BME280;4181;43.416;24.598;2022-08-25T00:46:10;98873.84;;;24.87;100.00
8286;BME280;4181;43.416;24.598;2022-08-25T00:48:37;98875.19;;;24.97;100.00
8286;BME280;4181;43.416;24.598;2022-08-25T00:51:05;98872.25;;;24.86;100.00
8286;BME280;4181;43.416;24.598;2022-08-25T00:53:31;98868.31;;;24.91;100.00
8286;BME280;4181;43.416;24.598;2022-08-25T00:55:57;98853.63;;;24.94;100.00
8286;BME280;4181;43.416;24.598;2022-08-25T00:58:25;98854.91;;;25.00;100.00
8286;BME280;4181;43.416;24.598;2022-08-25T01:00:54;98839.66;;;24.94;100.00
8286;BME280;4181;43.416;24.598;2022-08-25T01:03:24;98860.06;;;24.98;100.00
8286;BME280;4181;43.416;24.598;2022-08-25T01:05:51;98871.53;;;24.93;100.00
8286;BME280;4181;43.416;24.598;2022-08-25T01:08:18;98855.19;;;24.91;100.00
8286;BME280;4181;43.416;24.598;2022-08-25T01:10:48;98846.53;;;24.74;100.00
8286;BME280;4181;43.416;24.598;2022-08-25T01:13:46;98862.50;;;24.73;100.00
8286;BME280;4181;43.416;24.598;2022-08-25T01:16:14;98849.16;;;24.63;100.00
8286;BME280;4181;43.416;24.598;2022-08-25T01:18:55;98855.09;;;24.62;100.00
8286;BME280;4181;43.416;24.598;2022-08-25T01:21:24;98849.56;;;24.65;100.00
8286;BME280;4181;43.416;24.598;2022-08-25T01:23:51;98840.19;;;24.73;100.00
8286;BME280;4181;43.416;24.598;2022-08-25T01:26:24;98848.13;;;24.71;100.00
8286;BME280;4181;43.416;24.598;2022-08-25T01:28:50;98839.53;;;24.61;100.00
8286;BME280;4181;43.416;24.598;2022-08-25T01:31:36;98836.31;;;24.59;100.00
8286;BME280;4181;43.416;24.598;2022-08-25T01:34:03;98838.97;;;24.52;100.00
8286;BME280;4181;43.416;24.598;2022-08-25T01:36:30;98832.25;;;24.53;100.00
8286;BME280;4181;43.416;24.598;2022-08-25T01:38:56;98817.81;;;24.47;100.00
8286;BME280;4181;43.416;24.598;2022-08-25T01:43:54;98826.94;;;24.44;100.00
8286;BME280;4181;43.416;24.598;2022-08-25T01:46:20;98816.97;;;24.43;100.00
8286;BME280;4181;43.416;24.598;2022-08-25T01:48:46;98818.19;;;24.46;100.00
8286;BME280;4181;43.416;24.598;2022-08-25T01:51:14;98808.13;;;24.38;100.00
8286;BME280;4181;43.416;24.598;2022-08-25T01:53:40;98805.44;;;24.45;100.00
8286;BME280;4181;43.416;24.598;2022-08-25T01:56:10;98789.16;;;24.50;100.00
8286;BME280;4181;43.416;24.598;2022-08-25T01:58:39;98789.94;;;24.47;100.00
8286;BME280;4181;43.416;24.598;2022-08-25T02:01:08;98771.09;;;24.41;100.00
8286;BME280;4181;43.416;24.598;2022-08-25T02:03:39;98768.13;;;24.53;100.00
8286;BME280;4181;43.416;24.598;2022-08-25T02:06:06;98776.09;;;24.54;100.00
8286;BME280;4181;43.416;24.598;2022-08-25T02:08:32;98771.41;;;24.62;100.00
8286;BME280;4181;43.416;24.598;2022-08-25T02:10:58;98772.59;;;24.61;100.00
8286;BME280;4181;43.416;24.598;2022-08-25T02:13:23;98779.25;;;24.53;100.00
8286;BME280;4181;43.416;24.598;2022-08-25T02:15:54;98777.63;;;24.52;100.00
8286;BME280;4181;43.416;24.598;2022-08-25T02:18:21;98788.78;;;24.52;100.00
8286;BME280;4181;43.416;24.598;2022-08-25T02:20:47;98779.22;;;24.49;100.00
8286;BME280;4181;43.416;24.598;2022-08-25T02:23:13;98776.16;;;24.32;100.00
8286;BME280;4181;43.416;24.598;2022-08-25T02:25:40;98775.84;;;24.37;100.00
8286;BME280;4181;43.416;24.598;2022-08-25T02:28:07;98743.88;;;24.31;100.00
8286;BME280;4181;43.416;24.598;2022-08-25T02:30:35;98759.63;;;24.46;100.00
8286;BME280;4181;43.416;24.598;2022-08-25T02:33:01;98755.31;;;24.52;100.00
8286;BME280;4181;43.416;24.598;2022-08-25T02:35:27;98746.88;;;24.45;100.00
8286;BME280;4181;43.416;24.598;2022-08-25T02:37:53;98747.91;;;24.33;100.00
8286;BME280;4181;43.416;24.598;2022-08-25T02:40:19;98735.94;;;24.33;100.00
8286;BME280;4181;43.416;24.598;2022-08-25T02:42:48;98737.66;;;24.41;100.00
8286;BME280;4181;43.416;24.598;2022-08-25T02:45:14;98735.56;;;24.34;100.00
8286;BME280;4181;43.416;24.598;2022-08-25T02:47:40;98724.78;;;24.33;100.00
8286;BME280;4181;43.416;24.598;2022-08-25T02:50:07;98707.41;;;24.43;100.00
8286;BME280;4181;43.416;24.598;2022-08-25T02:52:33;98703.38;;;24.40;100.00
8286;BME280;4181;43.416;24.598;2022-08-25T02:55:00;98715.13;;;24.53;100.00
8286;BME280;4181;43.416;24.598;2022-08-25T02:57:28;98718.25;;;24.48;100.00
8286;BME280;4181;43.416;24.598;2022-08-25T02:59:54;98694.41;;;24.24;100.00
8286;BME280;4181;43.416;24.598;2022-08-25T03:02:19;98704.47;;;24.32;100.00
8286;BME280;4181;43.416;24.598;2022-08-25T03:04:45;98689.97;;;24.20;100.00
8286;BME280;4181;43.416;24.598;2022-08-25T03:07:11;98691.56;;;24.21;100.00
8286;BME280;4181;43.416;24.598;2022-08-25T03:09:37;98696.16;;;24.36;100.00
8286;BME280;4181;43.416;24.598;2022-08-25T03:12:04;98688.59;;;24.36;100.00
8286;BME280;4181;43.416;24.598;2022-08-25T03:14:32;98688.13;;;24.31;100.00
8286;BME280;4181;43.416;24.598;2022-08-25T03:16:58;98679.31;;;24.29;100.00
8286;BME280;4181;43.416;24.598;2022-08-25T03:19:24;98683.63;;;24.23;100.00
8286;BME280;4181;43.416;24.598;2022-08-25T03:21:49;98693.53;;;24.20;100.00
8286;BME280;4181;43.416;24.598;2022-08-25T03:24:17;98700.25;;;24.16;100.00
8286;BME280;4181;43.416;24.598;2022-08-25T03:26:42;98686.13;;;24.05;100.00
8286;BME280;4181;43.416;24.598;2022-08-25T03:29:25;98658.09;;;23.95;100.00
8286;BME280;4181;43.416;24.598;2022-08-25T03:31:52;98682.75;;;23.93;100.00
8286;BME280;4181;43.416;24.598;2022-08-25T03:34:20;98669.25;;;23.95;100.00
8286;BME280;4181;43.416;24.598;2022-08-25T03:36:48;98665.84;;;23.82;100.00
8286;BME280;4181;43.416;24.598;2022-08-25T03:39:15;98662.63;;;23.80;100.00
8286;BME280;4181;43.416;24.598;2022-08-25T03:41:41;98670.63;;;23.82;100.00
8286;BME280;4181;43.416;24.598;2022-08-25T03:44:08;98659.13;;;23.83;100.00
8286;BME280;4181;43.416;24.598;2022-08-25T03:46:41;98655.41;;;23.75;100.00
8286;BME280;4181;43.416;24.598;2022-08-25T03:49:10;98651.47;;;23.76;100.00
8286;BME280;4181;43.416;24.598;2022-08-25T03:51:40;98631.28;;;23.60;100.00
8286;BME280;4181;43.416;24.598;2022-08-25T03:54:08;98613.25;;;23.77;100.00
8286;BME280;4181;43.416;24.598;2022-08-25T03:56:35;98600.56;;;23.79;100.00
8286;BME280;4181;43.416;24.598;2022-08-25T03:59:00;98579.06;;;23.76;100.00
8286;BME280;4181;43.416;24.598;2022-08-25T04:01:26;98581.34;;;23.71;100.00
8286;BME280;4181;43.416;24.598;2022-08-25T04:03:52;98584.06;;;23.67;100.00
8286;BME280;4181;43.416;24.598;2022-08-25T04:06:18;98565.72;;;23.63;100.00
8286;BME280;4181;43.416;24.598;2022-08-25T04:08:44;98551.19;;;23.76;100.00
8286;BME280;4181;43.416;24.598;2022-08-25T04:11:16;98546.66;;;23.95;100.00
8286;BME280;4181;43.416;24.598;2022-08-25T04:13:42;98554.72;;;24.00;100.00
8286;BME280;4181;43.416;24.598;2022-08-25T04:16:20;98544.84;;;24.06;100.00
8286;BME280;4181;43.416;24.598;2022-08-25T04:18:48;98546.03;;;24.05;100.00
8286;BME280;4181;43.416;24.598;2022-08-25T04:21:14;98536.91;;;24.08;100.00
8286;BME280;4181;43.416;24.598;2022-08-25T04:23:42;98529.31;;;24.05;100.00
8286;BME280;4181;43.416;24.598;2022-08-25T04:26:14;98530.09;;;24.35;100.00
8286;BME280;4181;43.416;24.598;2022-08-25T04:28:40;98525.47;;;24.49;100.00
8286;BME280;4181;43.416;24.598;2022-08-25T04:31:10;98523.63;;;24.64;100.00
8286;BME280;4181;43.416;24.598;2022-08-25T04:33:36;98554.84;;;24.73;100.00
8286;BME280;4181;43.416;24.598;2022-08-25T04:36:04;98579.38;;;24.93;100.00
8286;BME280;4181;43.416;24.598;2022-08-25T04:38:29;98581.50;;;25.11;100.00
8286;BME280;4181;43.416;24.598;2022-08-25T04:41:01;98613.59;;;25.31;100.00
8286;BME280;4181;43.416;24.598;2022-08-25T04:43:28;98634.47;;;25.40;100.00
8286;BME280;4181;43.416;24.598;2022-08-25T04:45:53;98631.91;;;25.25;100.00
8286;BME280;4181;43.416;24.598;2022-08-25T04:48:20;98658.41;;;25.41;100.00
8286;BME280;4181;43.416;24.598;2022-08-25T04:50:46;98670.28;;;25.35;100.00
8286;BME280;4181;43.416;24.598;2022-08-25T04:53:11;98663.47;;;25.32;100.00
8286;BME280;4181;43.416;24.598;2022-08-25T04:55:41;98667.88;;;25.33;100.00
8286;BME280;4181;43.416;24.598;2022-08-25T04:58:07;98687.53;;;25.40;100.00
8286;BME280;4181;43.416;24.598;2022-08-25T05:00:34;98678.63;;;25.31;100.00
8286;BME280;4181;43.416;24.598;2022-08-25T05:03:00;98701.84;;;25.35;100.00
8286;BME280;4181;43.416;24.598;2022-08-25T05:05:26;98702.16;;;25.34;100.00
8286;BME280;4181;43.416;24.598;2022-08-25T05:07:51;98701.25;;;25.23;100.00
8286;BME280;4181;43.416;24.598;2022-08-25T05:10:17;98692.59;;;25.31;100.00
8286;BME280;4181;43.416;24.598;2022-08-25T05:12:44;98681.91;;;25.37;100.00
8286;BME280;4181;43.416;24.598;2022-08-25T05:15:10;98681.69;;;25.56;100.00
8286;BME280;4181;43.416;24.598;2022-08-25T05:17:55;98690.56;;;25.65;100.00
8286;BME280;4181;43.416;24.598;2022-08-25T05:20:20;98693.81;;;25.74;100.00
8286;BME280;4181;43.416;24.598;2022-08-25T05:22:46;98700.13;;;25.67;100.00
8286;BME280;4181;43.416;24.598;2022-08-25T05:25:12;98706.66;;;25.82;100.00
8286;BME280;4181;43.416;24.598;2022-08-25T05:27:39;98708.31;;;25.86;100.00
8286;BME280;4181;43.416;24.598;2022-08-25T05:30:05;98726.66;;;25.87;100.00
8286;BME280;4181;43.416;24.598;2022-08-25T05:32:31;98733.81;;;25.81;100.00
8286;BME280;4181;43.416;24.598;2022-08-25T05:34:56;98745.06;;;25.88;100.00
8286;BME280;4181;43.416;24.598;2022-08-25T05:37:22;98761.41;;;25.86;100.00
8286;BME280;4181;43.416;24.598;2022-08-25T05:39:47;98739.84;;;25.87;100.00
8286;BME280;4181;43.416;24.598;2022-08-25T05:42:13;98752.50;;;26.17;100.00
8286;BME280;4181;43.416;24.598;2022-08-25T05:44:38;98745.75;;;26.22;100.00
8286;BME280;4181;43.416;24.598;2022-08-25T05:47:04;98783.44;;;26.42;100.00
8286;BME280;4181;43.416;24.598;2022-08-25T05:49:30;98788.63;;;26.40;100.00
8286;BME280;4181;43.416;24.598;2022-08-25T05:51:55;98792.69;;;26.50;100.00
8286;BME280;4181;43.416;24.598;2022-08-25T05:54:21;98797.09;;;26.54;100.00
8286;BME280;4181;43.416;24.598;2022-08-25T05:56:46;98819.94;;;26.60;100.00
8286;BME280;4181;43.416;24.598;2022-08-25T05:59:12;98833.06;;;26.49;100.00
8286;BME280;4181;43.416;24.598;2022-08-25T06:01:38;98832.22;;;26.45;100.00
8286;BME280;4181;43.416;24.598;2022-08-25T06:04:21;98818.88;;;26.28;100.00
8286;BME280;4181;43.416;24.598;2022-08-25T06:06:47;98824.50;;;26.31;100.00
8286;BME280;4181;43.416;24.598;2022-08-25T06:09:14;98825.31;;;26.32;100.00
8286;BME280;4181;43.416;24.598;2022-08-25T06:11:40;98817.44;;;26.48;100.00
8286;BME280;4181;43.416;24.598;2022-08-25T06:14:09;98806.84;;;26.71;100.00
8286;BME280;4181;43.416;24.598;2022-08-25T06:16:36;98828.19;;;26.93;100.00
8286;BME280;4181;43.416;24.598;2022-08-25T06:19:03;98853.75;;;26.88;100.00
8286;BME280;4181;43.416;24.598;2022-08-25T06:21:30;98852.63;;;26.99;100.00
8286;BME280;4181;43.416;24.598;2022-08-25T06:23:56;98883.06;;;27.08;100.00
8286;BME280;4181;43.416;24.598;2022-08-25T06:26:22;98891.94;;;27.17;100.00
8286;BME280;4181;43.416;24.598;2022-08-25T06:28:51;98904.78;;;27.25;100.00
8286;BME280;4181;43.416;24.598;2022-08-25T06:31:18;98922.41;;;27.29;100.00
8286;BME280;4181;43.416;24.598;2022-08-25T06:33:44;98931.78;;;27.51;100.00
8286;BME280;4181;43.416;24.598;2022-08-25T06:36:09;98945.91;;;27.75;100.00
8286;BME280;4181;43.416;24.598;2022-08-25T06:38:35;98948.78;;;27.93;100.00
8286;BME280;4181;43.416;24.598;2022-08-25T06:41:03;99000.56;;;28.20;100.00
8286;BME280;4181;43.416;24.598;2022-08-25T06:43:28;99027.13;;;28.47;100.00
8286;BME280;4181;43.416;24.598;2022-08-25T06:45:54;99059.69;;;28.69;100.00
8286;BME280;4181;43.416;24.598;2022-08-25T06:48:19;99102.22;;;28.82;100.00
8286;BME280;4181;43.416;24.598;2022-08-25T06:50:45;99146.25;;;28.60;100.00
8286;BME280;4181;43.416;24.598;2022-08-25T06:53:14;99165.53;;;28.65;100.00
8286;BME280;4181;43.416;24.598;2022-08-25T06:55:39;99178.34;;;28.63;100.00
8286;BME280;4181;43.416;24.598;2022-08-25T06:58:06;99192.38;;;28.63;100.00
8286;BME280;4181;43.416;24.598;2022-08-25T07:00:32;99206.38;;;28.52;100.00
8286;BME280;4181;43.416;24.598;2022-08-25T07:02:58;99200.78;;;28.55;100.00
8286;BME280;4181;43.416;24.598;2022-08-25T07:05:25;99206.06;;;28.71;100.00
8286;BME280;4181;43.416;24.598;2022-08-25T07:07:51;99208.84;;;28.64;100.00
8286;BME280;4181;43.416;24.598;2022-08-25T07:10:16;99220.81;;;28.57;100.00
8286;BME280;4181;43.416;24.598;2022-08-25T07:12:42;99225.22;;;28.55;100.00
8286;BME280;4181;43.416;24.598;2022-08-25T07:15:08;99248.88;;;28.50;100.00
8286;BME280;4181;43.416;24.598;2022-08-25T07:17:33;99254.91;;;28.56;100.00
8286;BME280;4181;43.416;24.598;2022-08-25T07:19:59;99278.44;;;28.44;100.00
8286;BME280;4181;43.416;24.598;2022-08-25T07:22:24;99277.28;;;28.45;100.00
8286;BME280;4181;43.416;24.598;2022-08-25T07:24:50;99294.09;;;28.42;100.00
8286;BME280;4181;43.416;24.598;2022-08-25T07:27:15;99305.66;;;28.33;100.00
8286;BME280;4181;43.416;24.598;2022-08-25T07:29:41;99306.03;;;28.32;100.00
8286;BME280;4181;43.416;24.598;2022-08-25T07:32:06;99315.78;;;28.48;100.00
8286;BME280;4181;43.416;24.598;2022-08-25T07:34:32;99337.16;;;28.64;100.00
8286;BME280;4181;43.416;24.598;2022-08-25T07:37:19;99348.28;;;28.49;100.00
8286;BME280;4181;43.416;24.598;2022-08-25T07:39:44;99353.41;;;28.40;100.00
8286;BME280;4181;43.416;24.598;2022-08-25T07:42:11;99362.81;;;28.58;100.00
8286;BME280;4181;43.416;24.598;2022-08-25T07:44:38;99387.06;;;28.88;100.00
8286;BME280;4181;43.416;24.598;2022-08-25T07:47:07;99407.31;;;29.11;100.00
8286;BME280;4181;43.416;24.598;2022-08-25T07:49:32;99419.06;;;29.30;100.00
8286;BME280;4181;43.416;24.598;2022-08-25T07:51:58;99427.94;;;29.36;100.00
8286;BME280;4181;43.416;24.598;2022-08-25T07:54:23;99445.72;;;29.57;100.00
8286;BME280;4181;43.416;24.598;2022-08-25T07:56:51;99459.84;;;29.68;100.00
8286;BME280;4181;43.416;24.598;2022-08-25T07:59:16;99471.91;;;29.68;100.00
8286;BME280;4181;43.416;24.598;2022-08-25T08:01:42;99471.16;;;29.78;100.00
8286;BME280;4181;43.416;24.598;2022-08-25T08:04:08;99501.00;;;30.04;100.00
8286;BME280;4181;43.416;24.598;2022-08-25T08:06:33;99502.53;;;29.95;100.00
8286;BME280;4181;43.416;24.598;2022-08-25T08:08:59;99510.28;;;30.15;100.00
8286;BME280;4181;43.416;24.598;2022-08-25T08:11:30;99516.34;;;30.21;100.00
8286;BME280;4181;43.416;24.598;2022-08-25T08:13:58;99529.34;;;30.64;100.00
8286;BME280;4181;43.416;24.598;2022-08-25T08:16:27;99514.91;;;31.04;100.00
8286;BME280;4181;43.416;24.598;2022-08-25T08:18:56;99533.44;;;31.40;100.00
8286;BME280;4181;43.416;24.598;2022-08-25T08:21:25;99564.84;;;31.39;100.00
8286;BME280;4181;43.416;24.598;2022-08-25T08:23:52;99576.09;;;31.60;100.00
8286;BME280;4181;43.416;24.598;2022-08-25T08:26:19;99572.84;;;31.93;100.00
8286;BME280;4181;43.416;24.598;2022-08-25T08:28:45;99573.50;;;32.29;100.00
8286;BME280;4181;43.416;24.598;2022-08-25T08:31:14;99564.59;;;32.44;100.00
8286;BME280;4181;43.416;24.598;2022-08-25T08:33:44;99578.19;;;32.63;100.00
8286;BME280;4181;43.416;24.598;2022-08-25T08:36:11;99592.63;;;32.86;100.00
8286;BME280;4181;43.416;24.598;2022-08-25T08:38:38;99607.03;;;33.09;100.00
8286;BME280;4181;43.416;24.598;2022-08-25T08:55:32;99685.56;;;32.63;100.00
8286;BME280;4181;43.416;24.598;2022-08-25T08:58:03;99688.00;;;32.65;100.00
8286;BME280;4181;43.416;24.598;2022-08-25T09:00:32;99685.59;;;32.56;100.00
8286;BME280;4181;43.416;24.598;2022-08-25T09:03:09;99683.19;;;32.55;100.00
8286;BME280;4181;43.416;24.598;2022-08-25T09:05:47;99691.69;;;32.44;100.00
8286;BME280;4181;43.416;24.598;2022-08-25T09:08:15;99674.34;;;32.28;100.00
8286;BME280;4181;43.416;24.598;2022-08-25T09:11:06;99686.47;;;32.43;100.00
8286;BME280;4181;43.416;24.598;2022-08-25T09:28:12;99688.06;;;31.21;100.00
8286;BME280;4181;43.416;24.598;2022-08-25T09:54:02;99661.81;;;30.92;100.00
8286;BME280;4181;43.416;24.598;2022-08-25T09:56:56;99664.25;;;30.93;100.00
8286;BME280;4181;43.416;24.598;2022-08-25T09:59:28;99654.19;;;30.92;100.00
8286;BME280;4181;43.416;24.598;2022-08-25T10:02:30;99658.22;;;30.98;100.00
8286;BME280;4181;43.416;24.598;2022-08-25T10:04:55;99650.97;;;31.05;100.00
8286;BME280;4181;43.416;24.598;2022-08-25T10:07:30;99641.28;;;30.95;100.00
8286;BME280;4181;43.416;24.598;2022-08-25T10:10:03;99657.84;;;31.07;100.00
8286;BME280;4181;43.416;24.598;2022-08-25T10:12:38;99655.03;;;31.11;100.00
8286;BME280;4181;43.416;24.598;2022-08-25T10:15:28;99646.97;;;31.20;100.00
8286;BME280;4181;43.416;24.598;2022-08-25T10:17:54;99640.97;;;31.21;100.00
8286;BME280;4181;43.416;24.598;2022-08-25T10:20:26;99635.72;;;31.51;100.00
8286;BME280;4181;43.416;24.598;2022-08-25T10:23:09;99621.25;;;31.42;100.00
8286;BME280;4181;43.416;24.598;2022-08-25T10:25:41;99651.06;;;31.50;100.00
8286;BME280;4181;43.416;24.598;2022-08-25T10:39:08;99641.31;;;31.20;100.00
8286;BME280;4181;43.416;24.598;2022-08-25T10:42:02;99633.28;;;31.18;100.00
8286;BME280;4181;43.416;24.598;2022-08-25T10:44:51;99631.31;;;31.33;100.00
8286;BME280;4181;43.416;24.598;2022-08-25T10:55:46;99618.00;;;31.79;100.00
8286;BME280;4181;43.416;24.598;2022-08-25T10:58:50;99606.31;;;31.91;100.00
8286;BME280;4181;43.416;24.598;2022-08-25T11:04:13;99589.63;;;32.28;100.00
8286;BME280;4181;43.416;24.598;2022-08-25T11:06:51;99573.06;;;32.48;100.00
8286;BME280;4181;43.416;24.598;2022-08-25T11:09:24;99590.69;;;32.73;100.00
8286;BME280;4181;43.416;24.598;2022-08-25T11:11:58;99563.63;;;32.68;100.00
8286;BME280;4181;43.416;24.598;2022-08-25T11:17:05;99593.75;;;32.99;100.00
8286;BME280;4181;43.416;24.598;2022-08-25T11:19:44;99585.34;;;32.85;100.00
8286;BME280;4181;43.416;24.598;2022-08-25T11:22:20;99565.16;;;32.83;100.00
8286;BME280;4181;43.416;24.598;2022-08-25T11:27:47;99576.63;;;33.20;100.00
8286;BME280;4181;43.416;24.598;2022-08-25T11:30:19;99554.41;;;33.22;100.00
8286;BME280;4181;43.416;24.598;2022-08-25T11:32:48;99549.38;;;33.41;100.00
8286;BME280;4181;43.416;24.598;2022-08-25T11:35:25;99557.38;;;33.53;100.00
8286;BME280;4181;43.416;24.598;2022-08-25T11:44:01;99553.78;;;33.86;100.00
8286;BME280;4181;43.416;24.598;2022-08-25T11:52:53;99520.81;;;33.69;100.00
8286;BME280;4181;43.416;24.598;2022-08-25T11:54:53;99521.03;;;33.88;100.00
8286;BME280;4181;43.416;24.598;2022-08-25T11:57:23;99510.81;;;33.98;100.00
8286;BME280;4181;43.416;24.598;2022-08-25T12:00:34;99513.03;;;34.13;100.00
8286;BME280;4181;43.416;24.598;2022-08-25T12:02:49;99484.72;;;34.13;100.00
8286;BME280;4181;43.416;24.598;2022-08-25T12:10:56;99509.06;;;34.41;100.00
8286;BME280;4181;43.416;24.598;2022-08-25T12:16:01;99478.81;;;34.01;100.00
8286;BME280;4181;43.416;24.598;2022-08-25T12:26:42;99514.84;;;33.63;100.00
8286;BME280;4181;43.416;24.598;2022-08-25T13:10:48;99465.00;;;34.63;100.00
8286;BME280;4181;43.416;24.598;2022-08-25T13:16:39;99459.69;;;34.08;100.00
8286;BME280;4181;43.416;24.598;2022-08-25T13:19:28;99465.53;;;33.98;100.00
8286;BME280;4181;43.416;24.598;2022-08-25T13:21:56;99465.91;;;34.00;100.00
8286;BME280;4181;43.416;24.598;2022-08-25T13:24:33;99446.81;;;34.04;100.00
8286;BME280;4181;43.416;24.598;2022-08-25T13:27:03;99449.47;;;34.18;100.00
8286;BME280;4181;43.416;24.598;2022-08-25T13:29:35;99447.41;;;34.18;100.00
8286;BME280;4181;43.416;24.598;2022-08-25T13:32:07;99458.81;;;34.15;100.00
8286;BME280;4181;43.416;24.598;2022-08-25T13:34:37;99427.56;;;33.92;100.00
8286;BME280;4181;43.416;24.598;2022-08-25T13:37:14;99451.13;;;33.82;100.00
8286;BME280;4181;43.416;24.598;2022-08-25T13:40:29;99452.28;;;33.88;100.00
8286;BME280;4181;43.416;24.598;2022-08-25T13:43:09;99452.53;;;34.00;100.00
8286;BME280;4181;43.416;24.598;2022-08-25T13:45:44;99451.84;;;33.93;100.00
8286;BME280;4181;43.416;24.598;2022-08-25T13:48:11;99451.84;;;33.89;100.00
8286;BME280;4181;43.416;24.598;2022-08-25T13:50:40;99454.53;;;33.70;100.00
8286;BME280;4181;43.416;24.598;2022-08-25T13:53:19;99449.53;;;33.47;100.00
8286;BME280;4181;43.416;24.598;2022-08-25T13:55:51;99455.66;;;33.38;100.00
8286;BME280;4181;43.416;24.598;2022-08-25T13:58:28;99452.06;;;33.34;100.00
8286;BME280;4181;43.416;24.598;2022-08-25T14:01:29;99450.84;;;33.35;100.00
8286;BME280;4181;43.416;24.598;2022-08-25T14:03:54;99443.91;;;33.44;100.00
8286;BME280;4181;43.416;24.598;2022-08-25T14:06:25;99458.03;;;33.44;100.00
8286;BME280;4181;43.416;24.598;2022-08-25T14:11:55;99445.25;;;33.28;100.00
8286;BME280;4181;43.416;24.598;2022-08-25T14:17:04;99444.78;;;33.33;100.00
8286;BME280;4181;43.416;24.598;2022-08-25T14:19:32;99431.50;;;33.30;100.00
8286;BME280;4181;43.416;24.598;2022-08-25T14:21:58;99430.16;;;33.46;100.00
8286;BME280;4181;43.416;24.598;2022-08-25T14:24:30;99412.06;;;33.36;100.00
8286;BME280;4181;43.416;24.598;2022-08-25T14:26:56;99434.63;;;33.43;100.00
8286;BME280;4181;43.416;24.598;2022-08-25T14:29:21;99436.22;;;33.44;100.00
8286;BME280;4181;43.416;24.598;2022-08-25T14:31:48;99444.38;;;33.35;100.00
8286;BME280;4181;43.416;24.598;2022-08-25T14:34:18;99442.38;;;33.32;100.00
8286;BME280;4181;43.416;24.598;2022-08-25T14:36:44;99440.41;;;33.29;100.00
8286;BME280;4181;43.416;24.598;2022-08-25T14:39:11;99427.25;;;33.12;100.00
8286;BME280;4181;43.416;24.598;2022-08-25T14:41:38;99442.69;;;33.04;100.00
8286;BME280;4181;43.416;24.598;2022-08-25T14:44:19;99420.72;;;32.74;100.00
8286;BME280;4181;43.416;24.598;2022-08-25T14:46:50;99443.63;;;32.90;100.00
8286;BME280;4181;43.416;24.598;2022-08-25T14:49:21;99434.28;;;32.93;100.00
8286;BME280;4181;43.416;24.598;2022-08-25T14:51:48;99434.25;;;32.97;100.00
8286;BME280;4181;43.416;24.598;2022-08-25T14:54:14;99424.53;;;33.01;100.00
8286;BME280;4181;43.416;24.598;2022-08-25T14:56:43;99433.84;;;32.98;100.00
8286;BME280;4181;43.416;24.598;2022-08-25T14:59:09;99436.63;;;33.02;100.00
8286;BME280;4181;43.416;24.598;2022-08-25T15:01:34;99428.19;;;32.98;100.00
8286;BME280;4181;43.416;24.598;2022-08-25T15:04:04;99421.75;;;32.98;100.00
8286;BME280;4181;43.416;24.598;2022-08-25T15:06:33;99426.56;;;33.01;100.00
8286;BME280;4181;43.416;24.598;2022-08-25T15:08:59;99416.44;;;33.03;100.00
8286;BME280;4181;43.416;24.598;2022-08-25T15:11:48;99425.81;;;32.90;100.00
8286;BME280;4181;43.416;24.598;2022-08-25T15:14:18;99415.03;;;32.78;100.00
8286;BME280;4181;43.416;24.598;2022-08-25T15:16:47;99416.22;;;32.80;100.00
8286;BME280;4181;43.416;24.598;2022-08-25T15:19:14;99414.56;;;32.86;100.00
8286;BME280;4181;43.416;24.598;2022-08-25T15:21:42;99411.38;;;32.81;100.00
8286;BME280;4181;43.416;24.598;2022-08-25T15:24:09;99416.16;;;32.87;100.00
8286;BME280;4181;43.416;24.598;2022-08-25T15:26:41;99423.41;;;32.88;100.00
8286;BME280;4181;43.416;24.598;2022-08-25T15:29:09;99414.63;;;32.79;100.00
8286;BME280;4181;43.416;24.598;2022-08-25T15:31:34;99410.56;;;32.80;100.00
8286;BME280;4181;43.416;24.598;2022-08-25T15:34:00;99403.75;;;32.78;100.00
8286;BME280;4181;43.416;24.598;2022-08-25T15:36:25;99393.38;;;32.64;100.00
8286;BME280;4181;43.416;24.598;2022-08-25T15:38:51;99393.31;;;32.71;100.00
8286;BME280;4181;43.416;24.598;2022-08-25T15:41:19;99396.63;;;32.59;100.00
8286;BME280;4181;43.416;24.598;2022-08-25T15:43:47;99390.66;;;32.50;100.00
8286;BME280;4181;43.416;24.598;2022-08-25T15:46:16;99397.53;;;32.49;100.00
8286;BME280;4181;43.416;24.598;2022-08-25T15:48:44;99405.94;;;32.56;100.00
8286;BME280;4181;43.416;24.598;2022-08-25T15:51:10;99398.28;;;32.53;100.00
8286;BME280;4181;43.416;24.598;2022-08-25T15:53:36;99398.69;;;32.52;100.00
8286;BME280;4181;43.416;24.598;2022-08-25T15:56:04;99398.78;;;32.45;100.00